createdAt,value
2023-03-24T00:01:27.059Z,1013.1
2023-03-24T00:06:27.053Z,1013.1
2023-03-24T00:11:26.990Z,1013.2
2023-03-24T00:16:27.270Z,1013.2
2023-03-24T00:21:26.984Z,1013.1
2023-03-24T00:26:26.929Z,1013.0
2023-03-24T00:31:27.231Z,1013.1
2023-03-24T00:36:26.996Z,1013.0
2023-03-24T00:41:27.346Z,1013.0
2023-03-24T00:46:26.971Z,1013.0
2023-03-24T00:51:26.916Z,1012.9
2023-03-24T00:56:27.231Z,1012.9
2023-03-24T01:01:27.125Z,1012.8
2023-03-24T01:06:26.838Z,1012.7
2023-03-24T01:11:26.870Z,1012.6
2023-03-24T01:16:27.325Z,1012.5
2023-03-24T01:21:26.910Z,1012.4
2023-03-24T01:26:26.794Z,1012.4
2023-03-24T01:31:26.879Z,1012.4
2023-03-24T01:36:26.791Z,1012.4
2023-03-24T01:41:26.813Z,1012.4
2023-03-24T01:46:27.062Z,1012.4
2023-03-24T01:51:26.801Z,1012.3
2023-03-24T01:56:26.781Z,1012.3
2023-03-24T02:01:26.899Z,1012.3
2023-03-24T02:06:26.762Z,1012.3
2023-03-24T02:11:26.747Z,1012.3
2023-03-24T02:16:26.894Z,1012.3
2023-03-24T02:21:26.733Z,1012.2
2023-03-24T02:26:26.719Z,1012.2
2023-03-24T02:31:27.077Z,1012.3
2023-03-24T02:36:26.786Z,1012.2
2023-03-24T02:41:27.111Z,1012.2
2023-03-24T02:46:26.886Z,1012.2
2023-03-24T02:51:26.776Z,1012.0
2023-03-24T02:56:26.718Z,1012.0
2023-03-24T03:01:27.040Z,1011.9
2023-03-24T03:06:26.991Z,1011.9
2023-03-24T03:11:26.630Z,1011.9
2023-03-24T03:16:26.725Z,1011.9
2023-03-24T03:21:26.605Z,1011.9
2023-03-24T03:26:26.592Z,1011.9
2023-03-24T03:31:26.765Z,1012.0
2023-03-24T03:36:26.597Z,1012.0
2023-03-24T03:41:26.615Z,1012.0
2023-03-24T03:46:30.935Z,1012.0
2023-03-24T03:51:26.574Z,1012.0
2023-03-24T03:56:26.584Z,1011.9
2023-03-24T04:01:26.616Z,1011.9
2023-03-24T04:06:26.531Z,1012.0
2023-03-24T04:11:26.672Z,1011.9
2023-03-24T04:16:26.605Z,1012.0
2023-03-24T04:21:26.501Z,1011.9
2023-03-24T04:26:26.711Z,1011.8
2023-03-24T04:31:26.539Z,1011.9
2023-03-24T04:36:26.520Z,1011.9
2023-03-24T04:41:26.609Z,1011.8
2023-03-24T04:46:26.655Z,1011.8
2023-03-24T04:51:26.511Z,1011.8
2023-03-24T04:56:26.568Z,1011.8
2023-03-24T05:01:26.553Z,1011.8
2023-03-24T05:06:26.549Z,1011.7
2023-03-24T05:11:26.676Z,1011.7
2023-03-24T05:16:26.513Z,1011.6
2023-03-24T05:21:26.583Z,1011.5
2023-03-24T05:26:26.566Z,1011.5
2023-03-24T05:31:26.394Z,1011.6
2023-03-24T05:36:26.506Z,1011.6
2023-03-24T05:41:26.519Z,1011.5
2023-03-24T05:46:26.806Z,1011.5
2023-03-24T05:56:26.343Z,1011.5
2023-03-24T06:01:26.394Z,1011.5
2023-03-24T06:06:26.395Z,1011.5
2023-03-24T06:11:26.494Z,1011.4
2023-03-24T06:16:26.427Z,1011.4
2023-03-24T06:21:26.431Z,1011.4
2023-03-24T06:26:26.431Z,1011.4
2023-03-24T06:31:26.373Z,1011.5
2023-03-24T06:36:26.300Z,1011.5
2023-03-24T06:41:26.412Z,1011.5
2023-03-24T06:46:26.387Z,1011.4
2023-03-24T06:51:26.309Z,1011.4
2023-03-24T06:56:26.626Z,1011.4
2023-03-24T07:01:26.514Z,1011.4
2023-03-24T07:06:26.420Z,1011.3
2023-03-24T07:11:26.532Z,1011.3
2023-03-24T07:16:26.275Z,1011.4
2023-03-24T07:21:26.365Z,1011.3
2023-03-24T07:26:26.419Z,1011.5
2023-03-24T07:31:26.248Z,1011.5
2023-03-24T07:36:26.258Z,1011.5
2023-03-24T07:41:26.404Z,1011.5
2023-03-24T07:46:26.308Z,1011.3
2023-03-24T07:51:26.201Z,1011.3
2023-03-24T07:56:26.402Z,1011.2
2023-03-24T08:01:26.200Z,1011.2
2023-03-24T08:06:26.339Z,1011.1
2023-03-24T08:11:26.398Z,1011.2
2023-03-24T08:16:26.264Z,1011.0
2023-03-24T08:21:26.532Z,1011.1
2023-03-24T08:26:26.473Z,1011.0
2023-03-24T08:31:26.180Z,1011.1
2023-03-24T08:36:26.130Z,1011.0
2023-03-24T08:41:26.542Z,1011.0
2023-03-24T08:46:26.243Z,1010.9
2023-03-24T08:51:26.244Z,1010.8
2023-03-24T08:56:26.451Z,1010.8
2023-03-24T09:01:26.257Z,1010.8
2023-03-24T09:06:26.084Z,1010.8
2023-03-24T09:11:26.574Z,1010.6
2023-03-24T09:16:26.146Z,1010.5
2023-03-24T09:21:26.196Z,1010.5
2023-03-24T09:26:26.407Z,1010.5
2023-03-24T09:31:26.327Z,1010.4
2023-03-24T09:36:26.249Z,1010.2
2023-03-24T09:41:26.075Z,1010.2
2023-03-24T09:46:26.124Z,1010.2
2023-03-24T09:51:48.805Z,1010.1
2023-03-24T09:56:26.239Z,1010.0
2023-03-24T10:01:26.057Z,1009.9
2023-03-24T10:06:26.160Z,1009.8
2023-03-24T10:11:26.146Z,1009.8
2023-03-24T10:16:26.130Z,1009.8
2023-03-24T10:21:26.022Z,1009.7
2023-03-24T10:23:22.039Z,1009.7
2023-03-24T10:28:22.030Z,1009.8
2023-03-24T10:33:21.166Z,1009.8
2023-03-24T10:38:21.218Z,1009.8
2023-03-24T10:43:21.551Z,1009.7
2023-03-24T10:48:21.429Z,1009.7
2023-03-24T10:53:22.129Z,1009.7
2023-03-24T10:58:21.556Z,1009.7
2023-03-24T11:03:21.769Z,1009.5
2023-03-24T11:08:22.585Z,1009.5
2023-03-24T11:13:21.565Z,1009.5
2023-03-24T11:18:22.069Z,1009.5
2023-03-24T11:23:21.168Z,1009.3
2023-03-24T11:28:22.594Z,1009.3
2023-03-24T11:33:21.306Z,1009.2
2023-03-24T11:38:21.943Z,1009.1
2023-03-24T11:43:21.145Z,1009.0
2023-03-24T11:48:21.223Z,1008.9
2023-03-24T11:53:21.379Z,1008.8
2023-03-24T11:58:21.159Z,1008.8
2023-03-24T12:03:21.409Z,1008.8
2023-03-24T12:08:21.549Z,1008.7
2023-03-24T12:13:32.478Z,1008.6
2023-03-24T12:18:21.175Z,1008.7
2023-03-24T12:23:22.384Z,1008.6
2023-03-24T12:28:21.003Z,1008.7
2023-03-24T12:33:22.426Z,1008.5
2023-03-24T12:38:21.403Z,1008.6
2023-03-24T12:43:21.750Z,1008.5
2023-03-24T12:48:21.513Z,1008.5
2023-03-24T12:53:21.847Z,1008.5
2023-03-24T12:58:21.414Z,1008.4
2023-03-24T13:03:22.443Z,1008.3
2023-03-24T13:08:21.506Z,1008.2
2023-03-24T13:13:21.776Z,1008.2
2023-03-24T13:18:20.928Z,1008.2
2023-03-24T13:23:22.513Z,1008.2
2023-03-24T13:28:21.734Z,1008.1
2023-03-24T13:33:38.096Z,1008.1
2023-03-24T13:38:23.223Z,1008.0
2023-03-24T13:43:21.478Z,1008.0
2023-03-24T13:48:22.589Z,1008.0
2023-03-24T13:58:22.640Z,1007.9
2023-03-24T14:03:21.480Z,1007.9
2023-03-24T14:08:21.981Z,1007.8
2023-03-24T14:13:21.372Z,1007.8
2023-03-24T14:18:22.090Z,1007.7
2023-03-24T14:23:22.497Z,1007.7
2023-03-24T14:28:22.173Z,1007.7
2023-03-24T14:33:20.733Z,1007.5
2023-03-24T14:38:21.380Z,1007.5
2023-03-24T14:43:20.690Z,1007.5
2023-03-24T14:48:21.113Z,1007.4
2023-03-24T14:53:20.970Z,1007.3
2023-03-24T14:58:21.565Z,1007.2
2023-03-24T15:03:21.753Z,1007.1
2023-03-24T15:08:21.828Z,1007.2
2023-03-24T15:13:21.023Z,1007.3
2023-03-24T15:18:21.745Z,1007.2
2023-03-24T15:23:20.779Z,1007.4
2023-03-24T15:28:31.422Z,1007.2
2023-03-24T15:33:20.663Z,1007.1
2023-03-24T15:38:21.900Z,1007.1
2023-03-24T15:43:21.439Z,1007.1
2023-03-24T15:48:20.605Z,1007.1
2023-03-24T15:53:20.694Z,1007.2
2023-03-24T15:58:20.673Z,1007.3
2023-03-24T16:03:21.038Z,1007.3
2023-03-24T16:08:21.368Z,1007.4
2023-03-24T16:13:21.074Z,1007.4
2023-03-24T16:18:20.944Z,1007.5
2023-03-24T16:23:20.675Z,1007.5
2023-03-24T16:33:20.865Z,1007.5
2023-03-24T16:38:20.601Z,1007.7
2023-03-24T16:43:21.547Z,1007.6
2023-03-24T16:48:20.983Z,1007.7
2023-03-24T16:53:20.934Z,1007.6
2023-03-24T16:58:20.764Z,1007.6
2023-03-24T17:03:20.817Z,1007.5
2023-03-24T17:08:20.634Z,1007.4
2023-03-24T17:13:20.444Z,1007.4
2023-03-24T17:18:20.736Z,1007.5
2023-03-24T17:23:20.541Z,1007.4
2023-03-24T17:28:20.527Z,1007.4
2023-03-24T17:33:20.712Z,1007.5
2023-03-24T17:38:20.613Z,1007.7
2023-03-24T17:43:20.559Z,1007.9
2023-03-24T17:48:20.777Z,1008.0
2023-03-24T17:53:22.603Z,1008.0
2023-03-24T17:58:20.578Z,1007.9
2023-03-24T18:03:20.516Z,1007.9
2023-03-24T18:08:20.622Z,1007.9
2023-03-24T18:13:20.450Z,1008.0
2023-03-24T18:18:20.490Z,1008.0
2023-03-24T18:23:20.481Z,1007.9
2023-03-24T18:28:20.600Z,1007.7
2023-03-24T18:33:20.481Z,1007.7
2023-03-24T18:38:20.391Z,1007.7
2023-03-24T18:43:20.601Z,1007.4
2023-03-24T18:48:20.717Z,1007.6
2023-03-24T18:53:20.439Z,1007.8
2023-03-24T18:58:20.362Z,1007.8
2023-03-24T19:03:20.496Z,1007.9
2023-03-24T19:08:20.538Z,1007.9
2023-03-24T19:13:20.730Z,1007.7
2023-03-24T19:18:20.299Z,1007.7
2023-03-24T19:23:20.425Z,1007.8
2023-03-24T19:28:20.574Z,1007.8
2023-03-24T19:33:20.387Z,1007.9
2023-03-24T19:38:20.460Z,1007.8
2023-03-24T19:43:20.497Z,1007.8
2023-03-24T19:48:20.584Z,1007.7
2023-03-24T19:53:20.795Z,1007.7
2023-03-24T19:58:20.337Z,1007.8
2023-03-24T20:03:20.962Z,1007.8
2023-03-24T20:08:20.260Z,1007.8
2023-03-24T20:13:20.518Z,1007.7
2023-03-24T20:18:20.244Z,1007.7
2023-03-24T20:23:20.282Z,1007.7
2023-03-24T20:28:20.379Z,1007.7
2023-03-24T20:33:20.196Z,1007.8
2023-03-24T20:38:20.207Z,1007.9
2023-03-24T20:43:20.457Z,1007.8
2023-03-24T20:48:20.142Z,1007.8
2023-03-24T20:53:20.233Z,1007.8
2023-03-24T20:58:20.365Z,1008.0
2023-03-24T21:03:20.259Z,1007.9
2023-03-24T21:08:20.116Z,1007.9
2023-03-24T21:13:21.801Z,1008.0
2023-03-24T21:18:20.184Z,1007.9
2023-03-24T21:23:20.260Z,1007.9
2023-03-24T21:28:20.053Z,1007.9
2023-03-24T21:33:20.158Z,1007.9
2023-03-24T21:38:20.197Z,1007.9
2023-03-24T21:43:20.269Z,1007.8
2023-03-24T21:48:20.193Z,1007.9
2023-03-24T21:53:20.160Z,1007.8
2023-03-24T21:58:20.265Z,1007.9
2023-03-24T22:03:20.147Z,1007.9
2023-03-24T22:08:20.119Z,1007.9
2023-03-24T22:13:20.274Z,1007.9
2023-03-24T22:18:20.096Z,1007.9
2023-03-24T22:23:20.080Z,1007.9
2023-03-24T22:28:20.160Z,1007.9
2023-03-24T22:33:20.979Z,1007.9
2023-03-24T22:35:49.249Z,1007.9
2023-03-24T22:36:00.000Z,1007.9
2023-03-24T22:37:19.048Z,1007.8
2023-03-24T22:38:18.978Z,1007.9
2023-03-24T22:39:18.830Z,1007.9
2023-03-24T22:40:19.224Z,1007.8
2023-03-24T22:41:18.131Z,1007.8
2023-03-24T22:42:18.147Z,1007.8
2023-03-24T22:43:18.172Z,1007.8
2023-03-24T22:44:18.137Z,1007.9
2023-03-24T22:45:19.487Z,1007.9
2023-03-24T22:46:18.181Z,1007.8
2023-03-24T22:47:18.110Z,1007.9
2023-03-24T22:48:18.091Z,1007.9
2023-03-24T22:49:18.118Z,1008.0
2023-03-24T22:50:18.137Z,1007.9
2023-03-24T22:51:18.083Z,1007.9
2023-03-24T22:52:18.095Z,1007.9
2023-03-24T22:53:18.068Z,1007.9
2023-03-24T22:54:18.099Z,1007.8
2023-03-24T22:55:18.173Z,1007.8
2023-03-24T22:56:18.127Z,1007.8
2023-03-24T22:57:18.101Z,1007.7
2023-03-24T22:58:18.185Z,1007.8
2023-03-24T22:59:18.103Z,1007.8
2023-03-24T23:00:18.082Z,1007.8
2023-03-24T23:01:18.307Z,1007.7
2023-03-24T23:02:18.137Z,1007.7
2023-03-24T23:03:18.168Z,1007.7
2023-03-24T23:04:18.045Z,1007.6
2023-03-24T23:05:18.091Z,1007.6
2023-03-24T23:06:18.073Z,1007.6
2023-03-24T23:07:18.088Z,1007.6
2023-03-24T23:08:18.059Z,1007.5
2023-03-24T23:09:18.069Z,1007.6
2023-03-24T23:10:18.084Z,1007.6
2023-03-24T23:11:18.095Z,1007.6
2023-03-24T23:12:18.335Z,1007.6
2023-03-24T23:13:18.090Z,1007.6
2023-03-24T23:14:18.070Z,1007.6
2023-03-24T23:15:18.119Z,1007.6
2023-03-24T23:16:18.101Z,1007.7
2023-03-24T23:17:18.075Z,1007.7
2023-03-24T23:18:18.113Z,1007.7
2023-03-24T23:19:18.079Z,1007.6
2023-03-24T23:20:18.059Z,1007.6
2023-03-24T23:21:18.027Z,1007.6
2023-03-24T23:22:18.076Z,1007.6
2023-03-24T23:23:18.093Z,1007.7
2023-03-24T23:24:18.069Z,1007.6
2023-03-24T23:25:18.051Z,1007.7
2023-03-24T23:26:26.389Z,1007.6
2023-03-24T23:27:18.070Z,1007.7
2023-03-24T23:28:18.050Z,1007.6
2023-03-24T23:29:18.116Z,1007.7
2023-03-24T23:30:18.056Z,1007.8
2023-03-24T23:31:18.111Z,1007.7
2023-03-24T23:32:18.095Z,1007.6
2023-03-24T23:33:18.370Z,1007.6
2023-03-24T23:34:18.024Z,1007.6
2023-03-24T23:35:18.093Z,1007.6
2023-03-24T23:36:19.379Z,1007.7
2023-03-24T23:37:18.043Z,1007.7
2023-03-24T23:38:18.026Z,1007.7
2023-03-24T23:39:19.248Z,1007.6
2023-03-24T23:40:18.050Z,1007.6
2023-03-24T23:41:18.088Z,1007.7
2023-03-24T23:42:18.050Z,1007.6
2023-03-24T23:43:18.064Z,1007.6
2023-03-24T23:44:18.126Z,1007.6
2023-03-24T23:45:18.280Z,1007.6
2023-03-24T23:46:18.067Z,1007.6
2023-03-24T23:47:18.022Z,1007.5
2023-03-24T23:48:18.048Z,1007.6
2023-03-24T23:49:17.990Z,1007.6
2023-03-24T23:50:17.978Z,1007.6
2023-03-24T23:51:18.055Z,1007.7
2023-03-24T23:52:18.014Z,1007.6
2023-03-24T23:53:17.985Z,1007.5
2023-03-24T23:54:18.007Z,1007.6
2023-03-24T23:55:19.214Z,1007.6
2023-03-24T23:56:18.007Z,1007.6
2023-03-24T23:57:18.154Z,1007.5
2023-03-24T23:58:18.201Z,1007.5
2023-03-24T23:59:18.007Z,1007.5
